Scelkovo, Russia
Current Conditions -  °F | °C
As of 12:30 AM on Saturday 20 Dec 2014 (Local Time) from UUEE Reporting Station
Overcast Overcast  
Wind Chill: 27°   Ceiling: 300
Heat Index: 36°   Visibility: 6mi
Dew Point: 36°   Wind: 13mph
Humidity: 100%   Direction: 210°SSW
Pressure: 29.41"   Gusts: NA
Location:  56.15°N, 37.1°E
Report Text: UUEE 192130Z 21006MPS 9000 OVC003 02/02 Q0996 75550536 25520545NOSIG
Loading
Personal Weather Stations






























Interactive Weather Map New forecast layout! Learn more

10-Day Weather Forecast

Advertisements
Track Severe Weather on mobile